Погода Гуалегуайна 2 недели

Энтре-Риос, Аргентина

04 - 16 марта
  • 04марта
    Сегодня
    +14°
    +27°
    Облачно с прояснениями
    ВремяПогодаТемператураВлажностьДавлениеВетер, м/сВероятность осадков
    00:00Облачно с прояснениями+18°C59 %762 мм3.1 м/с5 %
    03:00Небольшая облачность+17°C64 %762 мм2.6 м/с5 %
    06:00Небольшая облачность+15°C72 %762 мм2.8 м/с5 %
    09:00Ясно и безоблачно+19°C66 %763 мм2.9 м/с5 %
    12:00Облачно с прояснениями+24°C43 %763 мм4.3 м/с5 %
    15:00Облачно с прояснениями+27°C35 %762 мм5.1 м/с5 %
    18:00Ясно и безоблачно+26°C43 %761 мм4.5 м/с5 %
    21:00Ясно и безоблачно+20°C57 %762 мм2.5 м/с5 %
  • 05марта
    Вторник
    +15°
    +28°
    Практически безоблачно
    ВремяПогодаТемператураВлажностьДавлениеВетер, м/сВероятность осадков
    00:00Ясно и безоблачно+17°C74 %763 мм2.6 м/с5 %
    03:00Ясно и безоблачно+15°C83 %763 мм2.3 м/с5 %
    06:00Ясно и безоблачно+16°C82 %763 мм0.1 м/с5 %
    09:00Ясно и безоблачно+20°C73 %763 мм0.8 м/с5 %
    12:00Ясно и безоблачно+24°C53 %763 мм1.4 м/с5 %
    15:00Практически безоблачно+27°C45 %762 мм2.7 м/с5 %
    18:00Практически безоблачно+28°C47 %761 мм3.3 м/с5 %
    21:00Ясно и безоблачно+22°C64 %761 мм2.3 м/с5 %
  • 06марта
    Среда
    +16°
    +29°
    Ясно и безоблачно
    ВремяПогодаТемператураВлажностьДавлениеВетер, м/сВероятность осадков
    00:00Ясно и безоблачно+19°C77 %761 мм2.3 м/с5 %
    03:00Ясно и безоблачно+17°C79 %761 мм2.6 м/с5 %
    06:00Ясно и безоблачно+16°C82 %761 мм2.3 м/с5 %
    09:00Ясно и безоблачно+20°C72 %762 мм2.7 м/с5 %
    12:00Ясно и безоблачно+26°C51 %761 мм3.5 м/с5 %
    15:00Ясно и безоблачно+28°C46 %760 мм3.5 м/с5 %
    18:00Ясно и безоблачно+29°C49 %759 мм3.8 м/с5 %
    21:00Ясно и безоблачно+23°C67 %759 мм2.6 м/с5 %
  • 07марта
    Четверг
    +19°
    +31°
    Ясно и безоблачно
    ВремяПогодаТемператураВлажностьДавлениеВетер, м/сВероятность осадков
    00:00Ясно и безоблачно+20°C75 %760 мм3.0 м/с5 %
    03:00Ясно и безоблачно+18°C75 %760 мм3.6 м/с5 %
    06:00Ясно и безоблачно+17°C80 %760 мм2.6 м/с5 %
    09:00Ясно и безоблачно+21°C71 %760 мм3.4 м/с5 %
    12:00Ясно и безоблачно+27°C54 %760 мм4.0 м/с5 %
    15:00Ясно и безоблачно+30°C46 %758 мм3.6 м/с5 %
    18:00Ясно и безоблачно+31°C48 %757 мм3.5 м/с5 %
    21:00Ясно и безоблачно+24°C64 %758 мм3.3 м/с4 %
Мы используем cookies
Соглашаюсь